Terminal Aerodrome Forecast
Issued by NWS

Home | Current Version | Previous Version | Graphics & Text | Print | Product List | Glossary On
Versions: 1 2 3 4 5 6 7 8 9 10 11 12 13 14 15 16 17 18 19 20 21 22 23
317
FTUS43 KICT 171137
TAFRSL
TAF
KRSL 171137Z 1712/1812 02015KT P6SM VCSH BKN100
      TEMPO 1712/1716 -TSRA SCT040 BKN060CB
     FM171900 09009KT P6SM BKN080
     FM180300 11006KT P6SM VCTS BKN050CB
     FM180600 14007KT 6SM SHRA OVC015
     FM180800 16006KT 6SM SHRA BR OVC008=

USA.gov is the U.S. government's official web portal to all federal, state and local government web resources and services.